This is the latest recevied weather packets stored in our database for station/object DG0OPK-16. If no packets are shown the sender has not sent any weather packets the latest 10 day(s).
| Time | Temp. | Humidity | Pressure | Rain* | Wind** | Luminosity | Snow |
|---|---|---|---|---|---|---|---|
| 1778001628 | 26.67° C | 26% | 1010.3 hPa | - | - | - | - |
| 1777980028 | 25.56° C | 25% | 1012.8 hPa | - | - | - | - |
| 1777958428 | 25° C | 25% | 1014.1 hPa | - | - | - | - |
| 1777936826 | 26.11° C | 25% | 1016.3 hPa | - | - | - | - |
| 1777915226 | 27.78° C | 24% | 1017.5 hPa | - | - | - | - |
| 1777893625 | 27.22° C | 23% | 1017.7 hPa | - | - | - | - |
| 1777872024 | 25° C | 24% | 1018.3 hPa | - | - | - | - |
| 1777850424 | 26.67° C | 23% | 1018.2 hPa | - | - | - | - |
| 1777828823 | 28.33° C | 22% | 1016.5 hPa | - | - | - | - |
| 1777807223 | 26.67° C | 21% | 1018.6 hPa | - | - | - | - |
| 1777785622 | 24.44° C | 23% | 1019.6 hPa | - | - | - | - |
| 1777764021 | 26.67° C | 22% | 1020.6 hPa | - | - | - | - |
| 1777742421 | 28.89° C | 20% | 1021.4 hPa | - | - | - | - |
| 1777720820 | 25.56° C | 22% | 1025.3 hPa | - | - | - | - |
| 1777699219 | 22.78° C | 23% | 1027.6 hPa | - | - | - | - |
| 1777656018 | 27.78° C | 21% | 1028.6 hPa | - | - | - | - |
| 1777634421 | 23.89° C | 22% | 1031.3 hPa | - | - | - | - |
| 1777612820 | 21.11° C | 22% | 1032.5 hPa | - | - | - | - |
| 1777591215 | 22.22° C | 20% | 1032.2 hPa | - | - | - | - |
| 1777569614 | 24.44° C | 18% | 1031.5 hPa | - | - | - | - |
| 1777548014 | 22.22° C | 20% | 1033 hPa | - | - | - | - |
| 1777526414 | 20° C | 22% | 1033.9 hPa | - | - | - | - |
| 1777504813 | 21.67° C | 22% | 1032.8 hPa | - | - | - | - |
| 1777483212 | 23.89° C | 18% | 1030 hPa | - | - | - | - |
| 1777461613 | 22.22° C | 19% | 1029.4 hPa | - | - | - | - |
* Rain since midnight (hover to see other rain measurements)
** Current wind speed in m/s (hover to see current wind gust speed)